sensor_id;sensor_type;location;lat;lon;timestamp;P1;durP1;ratioP1;P2;durP2;ratioP2
17965;SDS011;9108;53.204;10.424;2023-03-03T00:01:01;61.10;;;26.35;;
17965;SDS011;9108;53.204;10.424;2023-03-03T00:03:28;57.97;;;26.00;;
17965;SDS011;9108;53.204;10.424;2023-03-03T00:05:56;62.45;;;26.75;;
17965;SDS011;9108;53.204;10.424;2023-03-03T00:08:24;61.10;;;26.00;;
17965;SDS011;9108;53.204;10.424;2023-03-03T00:10:51;61.03;;;26.98;;
17965;SDS011;9108;53.204;10.424;2023-03-03T00:13:20;56.03;;;25.38;;
17965;SDS011;9108;53.204;10.424;2023-03-03T00:15:47;58.03;;;25.55;;
17965;SDS011;9108;53.204;10.424;2023-03-03T00:18:21;54.78;;;24.80;;
17965;SDS011;9108;53.204;10.424;2023-03-03T00:20:52;54.42;;;25.20;;
17965;SDS011;9108;53.204;10.424;2023-03-03T00:23:25;54.70;;;24.92;;
17965;SDS011;9108;53.204;10.424;2023-03-03T00:25:53;56.90;;;25.42;;
17965;SDS011;9108;53.204;10.424;2023-03-03T00:28:22;53.43;;;24.40;;
17965;SDS011;9108;53.204;10.424;2023-03-03T00:30:50;53.55;;;24.15;;
17965;SDS011;9108;53.204;10.424;2023-03-03T00:33:20;54.22;;;24.92;;
17965;SDS011;9108;53.204;10.424;2023-03-03T00:35:52;50.17;;;24.05;;
17965;SDS011;9108;53.204;10.424;2023-03-03T00:38:19;53.15;;;24.42;;
17965;SDS011;9108;53.204;10.424;2023-03-03T00:40:48;52.13;;;23.77;;
17965;SDS011;9108;53.204;10.424;2023-03-03T00:43:17;58.03;;;25.50;;
17965;SDS011;9108;53.204;10.424;2023-03-03T00:45:45;57.33;;;25.27;;
17965;SDS011;9108;53.204;10.424;2023-03-03T00:48:18;58.20;;;25.45;;
17965;SDS011;9108;53.204;10.424;2023-03-03T00:50:46;54.78;;;25.45;;
17965;SDS011;9108;53.204;10.424;2023-03-03T00:53:14;60.00;;;26.42;;
17965;SDS011;9108;53.204;10.424;2023-03-03T00:55:42;56.72;;;25.95;;
17965;SDS011;9108;53.204;10.424;2023-03-03T00:58:11;55.45;;;25.98;;
17965;SDS011;9108;53.204;10.424;2023-03-03T01:00:38;57.78;;;26.45;;
17965;SDS011;9108;53.204;10.424;2023-03-03T01:03:06;59.88;;;26.80;;
17965;SDS011;9108;53.204;10.424;2023-03-03T01:05:34;51.83;;;25.23;;
17965;SDS011;9108;53.204;10.424;2023-03-03T01:08:01;55.67;;;26.70;;
17965;SDS011;9108;53.204;10.424;2023-03-03T01:10:29;57.80;;;25.75;;
17965;SDS011;9108;53.204;10.424;2023-03-03T01:12:56;55.65;;;24.73;;
17965;SDS011;9108;53.204;10.424;2023-03-03T01:15:25;54.83;;;25.30;;
17965;SDS011;9108;53.204;10.424;2023-03-03T01:17:55;59.87;;;27.17;;
17965;SDS011;9108;53.204;10.424;2023-03-03T01:20:23;61.60;;;27.20;;
17965;SDS011;9108;53.204;10.424;2023-03-03T01:22:50;57.72;;;25.95;;
17965;SDS011;9108;53.204;10.424;2023-03-03T01:25:18;60.35;;;26.88;;
17965;SDS011;9108;53.204;10.424;2023-03-03T01:27:45;60.15;;;26.65;;
17965;SDS011;9108;53.204;10.424;2023-03-03T01:30:12;61.88;;;26.70;;
17965;SDS011;9108;53.204;10.424;2023-03-03T01:32:41;60.97;;;27.38;;
17965;SDS011;9108;53.204;10.424;2023-03-03T01:35:08;62.95;;;27.40;;
17965;SDS011;9108;53.204;10.424;2023-03-03T01:37:35;83.30;;;30.93;;
17965;SDS011;9108;53.204;10.424;2023-03-03T01:40:03;83.15;;;31.85;;
17965;SDS011;9108;53.204;10.424;2023-03-03T01:42:30;86.72;;;31.63;;
17965;SDS011;9108;53.204;10.424;2023-03-03T01:47:52;121.78;;;37.22;;
17965;SDS011;9108;53.204;10.424;2023-03-03T01:50:33;116.80;;;37.05;;
17965;SDS011;9108;53.204;10.424;2023-03-03T01:53:02;115.28;;;37.42;;
17965;SDS011;9108;53.204;10.424;2023-03-03T01:55:31;138.02;;;40.72;;
17965;SDS011;9108;53.204;10.424;2023-03-03T01:58:00;132.50;;;40.13;;
17965;SDS011;9108;53.204;10.424;2023-03-03T02:00:28;141.32;;;41.70;;
17965;SDS011;9108;53.204;10.424;2023-03-03T02:02:57;148.90;;;44.25;;
17965;SDS011;9108;53.204;10.424;2023-03-03T02:05:24;140.25;;;42.05;;
17965;SDS011;9108;53.204;10.424;2023-03-03T02:07:51;136.02;;;41.92;;
17965;SDS011;9108;53.204;10.424;2023-03-03T02:10:19;146.10;;;43.47;;
17965;SDS011;9108;53.204;10.424;2023-03-03T02:12:48;137.77;;;41.67;;
17965;SDS011;9108;53.204;10.424;2023-03-03T02:15:16;138.75;;;42.78;;
17965;SDS011;9108;53.204;10.424;2023-03-03T02:17:43;138.80;;;41.92;;
17965;SDS011;9108;53.204;10.424;2023-03-03T02:20:13;148.93;;;43.67;;
17965;SDS011;9108;53.204;10.424;2023-03-03T02:22:43;144.82;;;43.80;;
17965;SDS011;9108;53.204;10.424;2023-03-03T02:28:17;127.93;;;40.17;;
17965;SDS011;9108;53.204;10.424;2023-03-03T02:30:45;122.68;;;39.30;;
17965;SDS011;9108;53.204;10.424;2023-03-03T02:33:12;112.10;;;37.50;;
17965;SDS011;9108;53.204;10.424;2023-03-03T02:35:40;112.47;;;36.95;;
17965;SDS011;9108;53.204;10.424;2023-03-03T02:38:18;112.60;;;36.88;;
17965;SDS011;9108;53.204;10.424;2023-03-03T02:40:49;115.68;;;37.53;;
17965;SDS011;9108;53.204;10.424;2023-03-03T02:43:23;113.70;;;37.17;;
17965;SDS011;9108;53.204;10.424;2023-03-03T02:45:53;99.18;;;34.80;;
17965;SDS011;9108;53.204;10.424;2023-03-03T02:48:20;98.40;;;34.00;;
17965;SDS011;9108;53.204;10.424;2023-03-03T02:50:47;100.73;;;34.43;;
17965;SDS011;9108;53.204;10.424;2023-03-03T02:53:14;100.95;;;35.13;;
17965;SDS011;9108;53.204;10.424;2023-03-03T02:55:41;108.68;;;37.00;;
17965;SDS011;9108;53.204;10.424;2023-03-03T02:58:08;117.75;;;38.45;;
17965;SDS011;9108;53.204;10.424;2023-03-03T03:00:37;108.25;;;36.50;;
17965;SDS011;9108;53.204;10.424;2023-03-03T03:03:04;123.78;;;39.42;;
17965;SDS011;9108;53.204;10.424;2023-03-03T03:05:31;114.47;;;38.03;;
17965;SDS011;9108;53.204;10.424;2023-03-03T03:07:58;108.63;;;36.57;;
17965;SDS011;9108;53.204;10.424;2023-03-03T03:10:25;102.75;;;35.75;;
17965;SDS011;9108;53.204;10.424;2023-03-03T03:12:52;102.13;;;35.05;;
17965;SDS011;9108;53.204;10.424;2023-03-03T03:15:19;111.40;;;37.50;;
17965;SDS011;9108;53.204;10.424;2023-03-03T03:17:48;110.30;;;36.67;;
17965;SDS011;9108;53.204;10.424;2023-03-03T03:20:15;109.97;;;36.70;;
17965;SDS011;9108;53.204;10.424;2023-03-03T03:22:42;106.90;;;36.85;;
17965;SDS011;9108;53.204;10.424;2023-03-03T03:25:09;113.55;;;37.60;;
17965;SDS011;9108;53.204;10.424;2023-03-03T03:27:37;113.95;;;37.42;;
17965;SDS011;9108;53.204;10.424;2023-03-03T03:30:04;124.55;;;38.65;;
17965;SDS011;9108;53.204;10.424;2023-03-03T03:32:31;134.55;;;40.35;;
17965;SDS011;9108;53.204;10.424;2023-03-03T03:35:00;131.27;;;39.80;;
17965;SDS011;9108;53.204;10.424;2023-03-03T03:37:27;128.00;;;40.47;;
17965;SDS011;9108;53.204;10.424;2023-03-03T03:39:54;138.05;;;42.13;;
17965;SDS011;9108;53.204;10.424;2023-03-03T03:42:21;136.98;;;40.65;;
17965;SDS011;9108;53.204;10.424;2023-03-03T03:44:48;136.23;;;41.42;;
17965;SDS011;9108;53.204;10.424;2023-03-03T03:47:15;121.72;;;38.95;;
17965;SDS011;9108;53.204;10.424;2023-03-03T03:49:43;134.40;;;40.13;;
17965;SDS011;9108;53.204;10.424;2023-03-03T03:52:11;134.70;;;39.60;;
17965;SDS011;9108;53.204;10.424;2023-03-03T03:54:38;136.40;;;40.22;;
17965;SDS011;9108;53.204;10.424;2023-03-03T03:57:06;130.98;;;39.35;;
17965;SDS011;9108;53.204;10.424;2023-03-03T03:59:33;131.02;;;38.83;;
17965;SDS011;9108;53.204;10.424;2023-03-03T04:02:00;126.60;;;38.53;;
17965;SDS011;9108;53.204;10.424;2023-03-03T04:04:27;126.22;;;39.60;;
17965;SDS011;9108;53.204;10.424;2023-03-03T04:06:54;123.47;;;39.03;;
17965;SDS011;9108;53.204;10.424;2023-03-03T04:09:23;127.78;;;39.10;;
17965;SDS011;9108;53.204;10.424;2023-03-03T04:11:50;133.65;;;40.92;;
17965;SDS011;9108;53.204;10.424;2023-03-03T04:14:17;130.65;;;40.47;;
17965;SDS011;9108;53.204;10.424;2023-03-03T04:16:44;134.38;;;41.75;;
17965;SDS011;9108;53.204;10.424;2023-03-03T04:19:11;137.15;;;40.65;;
17965;SDS011;9108;53.204;10.424;2023-03-03T04:21:38;141.23;;;42.95;;
17965;SDS011;9108;53.204;10.424;2023-03-03T04:24:06;124.03;;;39.72;;
17965;SDS011;9108;53.204;10.424;2023-03-03T04:26:34;125.78;;;39.50;;
17965;SDS011;9108;53.204;10.424;2023-03-03T04:29:01;121.28;;;38.15;;
17965;SDS011;9108;53.204;10.424;2023-03-03T04:31:29;125.95;;;38.90;;
17965;SDS011;9108;53.204;10.424;2023-03-03T04:33:56;119.23;;;38.23;;
17965;SDS011;9108;53.204;10.424;2023-03-03T04:36:23;110.18;;;36.20;;
17965;SDS011;9108;53.204;10.424;2023-03-03T04:38:50;125.65;;;39.22;;
17965;SDS011;9108;53.204;10.424;2023-03-03T04:41:17;124.20;;;38.95;;
17965;SDS011;9108;53.204;10.424;2023-03-03T04:43:46;121.32;;;38.63;;
17965;SDS011;9108;53.204;10.424;2023-03-03T04:46:13;127.40;;;39.73;;
17965;SDS011;9108;53.204;10.424;2023-03-03T04:48:40;119.55;;;38.40;;
17965;SDS011;9108;53.204;10.424;2023-03-03T04:51:07;128.15;;;39.05;;
17965;SDS011;9108;53.204;10.424;2023-03-03T04:53:34;122.53;;;39.03;;
17965;SDS011;9108;53.204;10.424;2023-03-03T04:56:02;116.38;;;37.13;;
17965;SDS011;9108;53.204;10.424;2023-03-03T04:58:29;114.70;;;37.47;;
17965;SDS011;9108;53.204;10.424;2023-03-03T05:00:58;118.95;;;37.05;;
17965;SDS011;9108;53.204;10.424;2023-03-03T05:03:25;117.15;;;37.60;;
17965;SDS011;9108;53.204;10.424;2023-03-03T05:05:53;124.85;;;37.28;;
17965;SDS011;9108;53.204;10.424;2023-03-03T05:08:20;133.07;;;40.08;;
17965;SDS011;9108;53.204;10.424;2023-03-03T05:10:50;128.13;;;39.22;;
17965;SDS011;9108;53.204;10.424;2023-03-03T05:13:17;124.00;;;37.90;;
17965;SDS011;9108;53.204;10.424;2023-03-03T05:15:48;98.22;;;34.28;;
17965;SDS011;9108;53.204;10.424;2023-03-03T05:18:16;108.05;;;36.00;;
17965;SDS011;9108;53.204;10.424;2023-03-03T05:20:43;111.88;;;35.53;;
17965;SDS011;9108;53.204;10.424;2023-03-03T05:23:10;113.05;;;36.10;;
17965;SDS011;9108;53.204;10.424;2023-03-03T05:25:38;114.70;;;36.72;;
17965;SDS011;9108;53.204;10.424;2023-03-03T05:28:06;118.28;;;35.83;;
17965;SDS011;9108;53.204;10.424;2023-03-03T05:30:33;115.32;;;36.58;;
17965;SDS011;9108;53.204;10.424;2023-03-03T05:33:00;109.38;;;36.00;;
17965;SDS011;9108;53.204;10.424;2023-03-03T05:35:29;113.65;;;36.35;;
17965;SDS011;9108;53.204;10.424;2023-03-03T05:37:56;114.90;;;36.30;;
17965;SDS011;9108;53.204;10.424;2023-03-03T05:40:23;106.20;;;34.05;;
17965;SDS011;9108;53.204;10.424;2023-03-03T05:42:51;105.70;;;34.42;;
17965;SDS011;9108;53.204;10.424;2023-03-03T05:45:18;102.53;;;33.90;;
17965;SDS011;9108;53.204;10.424;2023-03-03T05:47:45;109.18;;;34.70;;
17965;SDS011;9108;53.204;10.424;2023-03-03T05:50:13;105.50;;;35.60;;
17965;SDS011;9108;53.204;10.424;2023-03-03T05:52:41;105.53;;;33.77;;
17965;SDS011;9108;53.204;10.424;2023-03-03T05:55:09;108.13;;;34.65;;
17965;SDS011;9108;53.204;10.424;2023-03-03T05:57:36;110.22;;;34.67;;
17965;SDS011;9108;53.204;10.424;2023-03-03T06:00:04;108.00;;;34.15;;
17965;SDS011;9108;53.204;10.424;2023-03-03T06:02:32;107.10;;;35.60;;
17965;SDS011;9108;53.204;10.424;2023-03-03T06:04:59;107.18;;;33.80;;
17965;SDS011;9108;53.204;10.424;2023-03-03T06:07:26;108.22;;;35.22;;
17965;SDS011;9108;53.204;10.424;2023-03-03T06:09:55;102.45;;;34.58;;
17965;SDS011;9108;53.204;10.424;2023-03-03T06:12:22;98.18;;;32.72;;
17965;SDS011;9108;53.204;10.424;2023-03-03T06:14:49;92.40;;;32.25;;
17965;SDS011;9108;53.204;10.424;2023-03-03T06:17:16;92.88;;;31.95;;
17965;SDS011;9108;53.204;10.424;2023-03-03T06:19:43;92.38;;;32.33;;
17965;SDS011;9108;53.204;10.424;2023-03-03T06:22:11;89.57;;;31.45;;
17965;SDS011;9108;53.204;10.424;2023-03-03T06:24:38;91.47;;;32.28;;
17965;SDS011;9108;53.204;10.424;2023-03-03T06:27:07;93.65;;;31.65;;
17965;SDS011;9108;53.204;10.424;2023-03-03T06:29:35;88.07;;;31.35;;
17965;SDS011;9108;53.204;10.424;2023-03-03T06:32:02;90.35;;;31.20;;
17965;SDS011;9108;53.204;10.424;2023-03-03T06:34:29;91.55;;;31.67;;
17965;SDS011;9108;53.204;10.424;2023-03-03T06:36:56;82.50;;;29.80;;
17965;SDS011;9108;53.204;10.424;2023-03-03T06:39:23;88.63;;;31.50;;
17965;SDS011;9108;53.204;10.424;2023-03-03T06:41:50;92.57;;;32.63;;
17965;SDS011;9108;53.204;10.424;2023-03-03T06:44:19;89.40;;;31.65;;
17965;SDS011;9108;53.204;10.424;2023-03-03T06:46:46;86.57;;;30.65;;
17965;SDS011;9108;53.204;10.424;2023-03-03T06:49:13;85.00;;;30.33;;
17965;SDS011;9108;53.204;10.424;2023-03-03T06:51:40;85.30;;;30.27;;
17965;SDS011;9108;53.204;10.424;2023-03-03T06:54:10;95.53;;;32.40;;
17965;SDS011;9108;53.204;10.424;2023-03-03T06:56:38;96.97;;;33.50;;
17965;SDS011;9108;53.204;10.424;2023-03-03T06:59:09;90.13;;;32.17;;
17965;SDS011;9108;53.204;10.424;2023-03-03T07:01:38;89.80;;;30.88;;
17965;SDS011;9108;53.204;10.424;2023-03-03T07:04:16;92.30;;;32.30;;
17965;SDS011;9108;53.204;10.424;2023-03-03T07:06:44;92.32;;;32.45;;
17965;SDS011;9108;53.204;10.424;2023-03-03T07:09:14;93.35;;;31.52;;
17965;SDS011;9108;53.204;10.424;2023-03-03T07:11:44;91.50;;;32.05;;
17965;SDS011;9108;53.204;10.424;2023-03-03T07:14:13;92.05;;;31.70;;
17965;SDS011;9108;53.204;10.424;2023-03-03T07:16:43;91.07;;;31.10;;
17965;SDS011;9108;53.204;10.424;2023-03-03T07:19:13;90.47;;;31.42;;
17965;SDS011;9108;53.204;10.424;2023-03-03T07:21:42;82.78;;;29.67;;
17965;SDS011;9108;53.204;10.424;2023-03-03T07:24:13;87.13;;;30.67;;
17965;SDS011;9108;53.204;10.424;2023-03-03T07:26:44;85.80;;;31.02;;
17965;SDS011;9108;53.204;10.424;2023-03-03T07:29:15;84.75;;;30.02;;
17965;SDS011;9108;53.204;10.424;2023-03-03T07:31:45;86.43;;;30.05;;
17965;SDS011;9108;53.204;10.424;2023-03-03T07:34:15;88.90;;;31.52;;
17965;SDS011;9108;53.204;10.424;2023-03-03T07:36:43;89.53;;;31.13;;
17965;SDS011;9108;53.204;10.424;2023-03-03T07:39:16;82.53;;;29.65;;
17965;SDS011;9108;53.204;10.424;2023-03-03T07:41:44;87.30;;;30.50;;
17965;SDS011;9108;53.204;10.424;2023-03-03T07:44:12;77.32;;;28.40;;
17965;SDS011;9108;53.204;10.424;2023-03-03T07:46:44;75.65;;;28.50;;
17965;SDS011;9108;53.204;10.424;2023-03-03T07:49:20;71.63;;;26.85;;
17965;SDS011;9108;53.204;10.424;2023-03-03T07:51:47;73.95;;;27.90;;
17965;SDS011;9108;53.204;10.424;2023-03-03T07:54:25;65.57;;;25.90;;
17965;SDS011;9108;53.204;10.424;2023-03-03T07:56:54;73.32;;;27.45;;
17965;SDS011;9108;53.204;10.424;2023-03-03T07:59:23;69.00;;;26.65;;
17965;SDS011;9108;53.204;10.424;2023-03-03T08:01:51;70.35;;;27.02;;
17965;SDS011;9108;53.204;10.424;2023-03-03T08:04:21;73.30;;;26.77;;
17965;SDS011;9108;53.204;10.424;2023-03-03T08:06:50;65.40;;;24.92;;
17965;SDS011;9108;53.204;10.424;2023-03-03T08:09:26;65.80;;;25.45;;
17965;SDS011;9108;53.204;10.424;2023-03-03T08:11:56;61.08;;;23.98;;
17965;SDS011;9108;53.204;10.424;2023-03-03T08:14:26;63.55;;;24.98;;
17965;SDS011;9108;53.204;10.424;2023-03-03T08:16:54;64.70;;;25.83;;
17965;SDS011;9108;53.204;10.424;2023-03-03T08:19:22;70.90;;;27.05;;
17965;SDS011;9108;53.204;10.424;2023-03-03T08:21:50;65.90;;;25.83;;
17965;SDS011;9108;53.204;10.424;2023-03-03T08:24:17;66.82;;;26.15;;
17965;SDS011;9108;53.204;10.424;2023-03-03T08:26:44;64.30;;;24.90;;
17965;SDS011;9108;53.204;10.424;2023-03-03T08:29:11;61.92;;;24.52;;
17965;SDS011;9108;53.204;10.424;2023-03-03T08:31:38;62.73;;;25.07;;
17965;SDS011;9108;53.204;10.424;2023-03-03T08:34:05;59.37;;;23.97;;
17965;SDS011;9108;53.204;10.424;2023-03-03T08:36:34;58.80;;;23.70;;
17965;SDS011;9108;53.204;10.424;2023-03-03T08:39:01;56.08;;;23.17;;
17965;SDS011;9108;53.204;10.424;2023-03-03T08:41:28;55.58;;;23.13;;
17965;SDS011;9108;53.204;10.424;2023-03-03T08:43:55;55.58;;;23.00;;
17965;SDS011;9108;53.204;10.424;2023-03-03T08:46:22;52.08;;;22.30;;
17965;SDS011;9108;53.204;10.424;2023-03-03T08:48:50;52.60;;;22.92;;
17965;SDS011;9108;53.204;10.424;2023-03-03T08:51:17;51.60;;;22.00;;
17965;SDS011;9108;53.204;10.424;2023-03-03T08:53:45;48.22;;;21.42;;
17965;SDS011;9108;53.204;10.424;2023-03-03T08:56:12;49.60;;;21.60;;
17965;SDS011;9108;53.204;10.424;2023-03-03T08:58:39;55.58;;;22.42;;
17965;SDS011;9108;53.204;10.424;2023-03-03T09:01:12;52.22;;;22.45;;
17965;SDS011;9108;53.204;10.424;2023-03-03T09:03:40;49.75;;;21.33;;
17965;SDS011;9108;53.204;10.424;2023-03-03T09:06:07;56.95;;;24.77;;
17965;SDS011;9108;53.204;10.424;2023-03-03T09:08:34;51.60;;;22.60;;
17965;SDS011;9108;53.204;10.424;2023-03-03T09:11:05;54.13;;;23.17;;
17965;SDS011;9108;53.204;10.424;2023-03-03T09:13:35;53.75;;;22.55;;
17965;SDS011;9108;53.204;10.424;2023-03-03T09:16:02;49.42;;;21.58;;
17965;SDS011;9108;53.204;10.424;2023-03-03T09:18:34;50.53;;;22.05;;
17965;SDS011;9108;53.204;10.424;2023-03-03T09:21:05;51.13;;;23.10;;
17965;SDS011;9108;53.204;10.424;2023-03-03T09:23:42;49.97;;;22.48;;
17965;SDS011;9108;53.204;10.424;2023-03-03T09:26:17;49.50;;;22.15;;
17965;SDS011;9108;53.204;10.424;2023-03-03T09:28:50;48.95;;;21.63;;
17965;SDS011;9108;53.204;10.424;2023-03-03T09:31:21;47.58;;;20.98;;
17965;SDS011;9108;53.204;10.424;2023-03-03T09:33:50;41.63;;;18.67;;
17965;SDS011;9108;53.204;10.424;2023-03-03T09:36:22;43.30;;;19.20;;
17965;SDS011;9108;53.204;10.424;2023-03-03T09:38:50;41.88;;;17.92;;
17965;SDS011;9108;53.204;10.424;2023-03-03T09:44:08;43.57;;;19.33;;
17965;SDS011;9108;53.204;10.424;2023-03-03T09:46:39;39.40;;;18.25;;
17965;SDS011;9108;53.204;10.424;2023-03-03T09:49:15;40.42;;;18.88;;
17965;SDS011;9108;53.204;10.424;2023-03-03T09:51:49;40.42;;;19.20;;
17965;SDS011;9108;53.204;10.424;2023-03-03T09:57:08;38.67;;;18.58;;
17965;SDS011;9108;53.204;10.424;2023-03-03T09:59:43;42.65;;;19.15;;
17965;SDS011;9108;53.204;10.424;2023-03-03T10:05:11;41.60;;;19.33;;
17965;SDS011;9108;53.204;10.424;2023-03-03T10:07:42;36.63;;;17.17;;
17965;SDS011;9108;53.204;10.424;2023-03-03T10:10:16;38.30;;;18.38;;
17965;SDS011;9108;53.204;10.424;2023-03-03T11:04:53;21.67;;;11.88;;
17965;SDS011;9108;53.204;10.424;2023-03-03T11:07:26;21.58;;;11.10;;
17965;SDS011;9108;53.204;10.424;2023-03-03T11:09:58;23.23;;;12.18;;
17965;SDS011;9108;53.204;10.424;2023-03-03T11:12:30;21.42;;;11.93;;
17965;SDS011;9108;53.204;10.424;2023-03-03T11:15:07;22.48;;;11.93;;
17965;SDS011;9108;53.204;10.424;2023-03-03T11:17:42;19.77;;;11.30;;
17965;SDS011;9108;53.204;10.424;2023-03-03T11:20:19;21.60;;;11.75;;
17965;SDS011;9108;53.204;10.424;2023-03-03T11:22:50;20.77;;;11.30;;
17965;SDS011;9108;53.204;10.424;2023-03-03T11:25:24;21.98;;;11.80;;
17965;SDS011;9108;53.204;10.424;2023-03-03T11:28:11;18.80;;;10.23;;
17965;SDS011;9108;53.204;10.424;2023-03-03T11:30:49;21.20;;;11.13;;
17965;SDS011;9108;53.204;10.424;2023-03-03T11:33:24;21.00;;;11.18;;
17965;SDS011;9108;53.204;10.424;2023-03-03T11:35:57;21.30;;;11.32;;
17965;SDS011;9108;53.204;10.424;2023-03-03T11:38:35;21.58;;;11.60;;
17965;SDS011;9108;53.204;10.424;2023-03-03T11:41:07;23.60;;;11.63;;
17965;SDS011;9108;53.204;10.424;2023-03-03T11:43:40;21.38;;;11.02;;
17965;SDS011;9108;53.204;10.424;2023-03-03T11:46:08;21.83;;;10.95;;
17965;SDS011;9108;53.204;10.424;2023-03-03T11:48:38;22.00;;;10.88;;
17965;SDS011;9108;53.204;10.424;2023-03-03T11:51:10;19.35;;;10.98;;
17965;SDS011;9108;53.204;10.424;2023-03-03T11:53:42;19.58;;;10.48;;
17965;SDS011;9108;53.204;10.424;2023-03-03T11:56:16;20.80;;;10.68;;
17965;SDS011;9108;53.204;10.424;2023-03-03T11:58:46;20.63;;;10.70;;
17965;SDS011;9108;53.204;10.424;2023-03-03T12:01:17;19.67;;;10.60;;
17965;SDS011;9108;53.204;10.424;2023-03-03T12:03:46;19.88;;;10.45;;
17965;SDS011;9108;53.204;10.424;2023-03-03T12:06:17;18.40;;;10.02;;
17965;SDS011;9108;53.204;10.424;2023-03-03T12:11:44;18.70;;;10.13;;
17965;SDS011;9108;53.204;10.424;2023-03-03T12:14:15;17.98;;;9.88;;
17965;SDS011;9108;53.204;10.424;2023-03-03T12:16:48;19.30;;;10.15;;
17965;SDS011;9108;53.204;10.424;2023-03-03T12:19:19;18.80;;;9.70;;
17965;SDS011;9108;53.204;10.424;2023-03-03T12:22:03;20.27;;;9.70;;
17965;SDS011;9108;53.204;10.424;2023-03-03T12:24:33;19.55;;;9.77;;
17965;SDS011;9108;53.204;10.424;2023-03-03T12:27:13;20.55;;;10.40;;
17965;SDS011;9108;53.204;10.424;2023-03-03T12:29:42;20.13;;;10.33;;
17965;SDS011;9108;53.204;10.424;2023-03-03T12:32:17;19.08;;;9.70;;
17965;SDS011;9108;53.204;10.424;2023-03-03T12:34:47;20.33;;;10.05;;
17965;SDS011;9108;53.204;10.424;2023-03-03T12:37:26;19.88;;;9.48;;
17965;SDS011;9108;53.204;10.424;2023-03-03T12:39:59;20.02;;;9.65;;
17965;SDS011;9108;53.204;10.424;2023-03-03T12:42:33;17.83;;;8.77;;
17965;SDS011;9108;53.204;10.424;2023-03-03T12:45:05;18.95;;;9.27;;
17965;SDS011;9108;53.204;10.424;2023-03-03T12:47:35;21.75;;;9.43;;
17965;SDS011;9108;53.204;10.424;2023-03-03T12:50:12;19.38;;;9.38;;
17965;SDS011;9108;53.204;10.424;2023-03-03T12:52:45;20.97;;;9.70;;
17965;SDS011;9108;53.204;10.424;2023-03-03T12:55:16;19.92;;;9.90;;
17965;SDS011;9108;53.204;10.424;2023-03-03T12:57:48;22.00;;;9.80;;
17965;SDS011;9108;53.204;10.424;2023-03-03T13:00:22;19.87;;;9.27;;
17965;SDS011;9108;53.204;10.424;2023-03-03T13:02:54;21.60;;;9.60;;
17965;SDS011;9108;53.204;10.424;2023-03-03T13:05:24;24.30;;;10.10;;
17965;SDS011;9108;53.204;10.424;2023-03-03T13:07:59;22.45;;;9.70;;
17965;SDS011;9108;53.204;10.424;2023-03-03T13:10:32;20.80;;;9.27;;
17965;SDS011;9108;53.204;10.424;2023-03-03T13:13:03;20.65;;;9.90;;
17965;SDS011;9108;53.204;10.424;2023-03-03T13:15:33;21.15;;;9.43;;
17965;SDS011;9108;53.204;10.424;2023-03-03T13:18:11;20.48;;;9.45;;
17965;SDS011;9108;53.204;10.424;2023-03-03T13:20:43;21.43;;;9.13;;
17965;SDS011;9108;53.204;10.424;2023-03-03T13:23:16;21.67;;;9.13;;
17965;SDS011;9108;53.204;10.424;2023-03-03T13:25:47;19.88;;;9.05;;
17965;SDS011;9108;53.204;10.424;2023-03-03T13:28:20;18.90;;;8.43;;
17965;SDS011;9108;53.204;10.424;2023-03-03T13:30:49;21.63;;;9.32;;
17965;SDS011;9108;53.204;10.424;2023-03-03T13:33:20;20.13;;;8.60;;
17965;SDS011;9108;53.204;10.424;2023-03-03T13:35:51;20.35;;;8.70;;
17965;SDS011;9108;53.204;10.424;2023-03-03T13:38:20;21.58;;;9.52;;
17965;SDS011;9108;53.204;10.424;2023-03-03T13:40:49;22.17;;;9.80;;
17965;SDS011;9108;53.204;10.424;2023-03-03T13:43:17;18.50;;;8.85;;
17965;SDS011;9108;53.204;10.424;2023-03-03T13:45:52;20.65;;;9.35;;
17965;SDS011;9108;53.204;10.424;2023-03-03T13:48:26;18.40;;;8.13;;
17965;SDS011;9108;53.204;10.424;2023-03-03T13:50:56;20.40;;;8.23;;
17965;SDS011;9108;53.204;10.424;2023-03-03T13:53:27;17.48;;;7.82;;
17965;SDS011;9108;53.204;10.424;2023-03-03T13:56:00;19.75;;;8.10;;
17965;SDS011;9108;53.204;10.424;2023-03-03T13:58:31;16.27;;;7.65;;
17965;SDS011;9108;53.204;10.424;2023-03-03T14:01:05;19.75;;;8.10;;
17965;SDS011;9108;53.204;10.424;2023-03-03T14:06:20;17.30;;;8.30;;
17965;SDS011;9108;53.204;10.424;2023-03-03T14:08:53;17.08;;;8.13;;
17965;SDS011;9108;53.204;10.424;2023-03-03T14:11:25;17.88;;;7.93;;
17965;SDS011;9108;53.204;10.424;2023-03-03T14:13:58;15.65;;;7.40;;
17965;SDS011;9108;53.204;10.424;2023-03-03T14:16:34;16.08;;;7.45;;
17965;SDS011;9108;53.204;10.424;2023-03-03T14:19:05;19.23;;;8.10;;
17965;SDS011;9108;53.204;10.424;2023-03-03T14:21:35;19.02;;;7.75;;
17965;SDS011;9108;53.204;10.424;2023-03-03T14:24:06;16.67;;;7.80;;
17965;SDS011;9108;53.204;10.424;2023-03-03T14:26:44;17.17;;;7.63;;
17965;SDS011;9108;53.204;10.424;2023-03-03T14:29:21;15.35;;;6.95;;
17965;SDS011;9108;53.204;10.424;2023-03-03T14:31:50;17.88;;;7.30;;
17965;SDS011;9108;53.204;10.424;2023-03-03T14:34:25;15.82;;;7.13;;
17965;SDS011;9108;53.204;10.424;2023-03-03T14:36:57;15.30;;;7.10;;
17965;SDS011;9108;53.204;10.424;2023-03-03T14:39:27;15.90;;;6.77;;
17965;SDS011;9108;53.204;10.424;2023-03-03T14:41:56;15.55;;;7.07;;
17965;SDS011;9108;53.204;10.424;2023-03-03T14:44:26;15.60;;;7.40;;
17965;SDS011;9108;53.204;10.424;2023-03-03T14:49:37;14.77;;;6.38;;
17965;SDS011;9108;53.204;10.424;2023-03-03T14:52:10;12.50;;;5.82;;
17965;SDS011;9108;53.204;10.424;2023-03-03T14:54:38;13.70;;;5.95;;
17965;SDS011;9108;53.204;10.424;2023-03-03T14:57:06;13.25;;;5.45;;
17965;SDS011;9108;53.204;10.424;2023-03-03T14:59:38;12.68;;;5.28;;
17965;SDS011;9108;53.204;10.424;2023-03-03T15:05:20;12.20;;;4.57;;
17965;SDS011;9108;53.204;10.424;2023-03-03T15:07:48;11.40;;;4.30;;
17965;SDS011;9108;53.204;10.424;2023-03-03T15:10:25;13.15;;;5.03;;
17965;SDS011;9108;53.204;10.424;2023-03-03T15:12:53;11.60;;;4.45;;
17965;SDS011;9108;53.204;10.424;2023-03-03T15:15:21;12.18;;;4.43;;
17965;SDS011;9108;53.204;10.424;2023-03-03T15:17:55;10.05;;;4.40;;
17965;SDS011;9108;53.204;10.424;2023-03-03T15:20:39;11.43;;;4.13;;
17965;SDS011;9108;53.204;10.424;2023-03-03T15:23:23;8.00;;;3.63;;
17965;SDS011;9108;53.204;10.424;2023-03-03T15:25:56;9.85;;;3.70;;
17965;SDS011;9108;53.204;10.424;2023-03-03T15:28:31;8.97;;;3.27;;
17965;SDS011;9108;53.204;10.424;2023-03-03T15:31:02;8.73;;;3.10;;
17965;SDS011;9108;53.204;10.424;2023-03-03T15:33:34;8.68;;;3.13;;
17965;SDS011;9108;53.204;10.424;2023-03-03T15:36:10;9.02;;;3.00;;
17965;SDS011;9108;53.204;10.424;2023-03-03T15:38:42;7.07;;;2.92;;
17965;SDS011;9108;53.204;10.424;2023-03-03T15:41:16;7.63;;;2.50;;
17965;SDS011;9108;53.204;10.424;2023-03-03T15:43:47;7.25;;;2.30;;
17965;SDS011;9108;53.204;10.424;2023-03-03T15:46:19;5.47;;;2.00;;
17965;SDS011;9108;53.204;10.424;2023-03-03T15:48:53;7.40;;;2.33;;
17965;SDS011;9108;53.204;10.424;2023-03-03T15:51:27;7.50;;;2.20;;
17965;SDS011;9108;53.204;10.424;2023-03-03T15:54:01;8.15;;;2.53;;